Time;durP1;ratioP1;P1;durP2;ratioP2;P2;SDS_P1;SDS_P2;PMS_P1;PMS_P2;Temp;Humidity;BMP_temperature;BMP_pressure;BME280_temperature;BME280_humidity;BME280_pressure;Samples;Min_cycle;Max_cycle;Signal;HPM_P1;HPM_P2
2021/05/04 00:00:01;;;;;;;1.30;1.30;;;5.50;98.00;;;;;;5028218;28;20469;-70
2021/05/04 00:02:27;;;;;;;1.40;1.20;;;5.60;98.00;;;;;;5031052;28;20457;-69
2021/05/04 00:04:54;;;;;;;1.20;0.90;;;5.50;98.00;;;;;;5028328;28;20454;-69
2021/05/04 00:07:20;;;;;;;1.20;0.90;;;5.40;98.00;;;;;;5031074;28;20465;-69
2021/05/04 00:09:48;;;;;;;1.80;1.53;;;5.50;98.00;;;;;;5027978;28;20461;-70
2021/05/04 00:12:14;;;;;;;1.20;1.10;;;5.50;98.00;;;;;;5033819;28;20528;-69
2021/05/04 00:14:41;;;;;;;1.57;1.10;;;5.50;98.00;;;;;;5031886;28;20486;-69
2021/05/04 00:17:07;;;;;;;2.13;1.80;;;5.60;98.00;;;;;;5035132;28;20455;-70
2021/05/04 00:19:34;;;;;;;1.37;1.20;;;5.50;98.00;;;;;;5031842;28;20459;-70
2021/05/04 00:22:01;;;;;;;1.70;1.50;;;5.50;98.00;;;;;;5033681;28;20459;-69
2021/05/04 00:24:27;;;;;;;1.20;1.00;;;5.40;98.00;;;;;;5031778;28;20469;-71
2021/05/04 00:26:55;;;;;;;1.20;1.00;;;5.30;98.00;;;;;;5034711;28;20925;-69
2021/05/04 00:29:21;;;;;;;1.20;1.00;;;5.30;98.00;;;;;;5032113;28;21012;-69
2021/05/04 00:31:48;;;;;;;3.33;1.53;;;5.30;98.00;;;;;;5034275;28;20453;-69
2021/05/04 00:34:15;;;;;;;2.17;1.30;;;5.40;98.00;;;;;;5031794;28;20568;-69
2021/05/04 00:36:41;;;;;;;3.30;1.90;;;5.30;98.00;;;;;;5034417;28;20460;-69
2021/05/04 00:39:11;;;;;;;1.20;1.10;;;5.20;98.00;;;;;;5031457;28;20512;-69
2021/05/04 00:41:37;;;;;;;1.20;1.00;;;5.10;98.00;;;;;;5033767;28;20460;-69
2021/05/04 00:44:05;;;;;;;1.40;1.20;;;5.20;98.00;;;;;;5031710;28;20454;-69
2021/05/04 00:46:32;;;;;;;1.27;1.17;;;5.00;98.00;;;;;;5034278;28;20834;-70
2021/05/04 00:48:58;;;;;;;1.60;1.03;;;5.00;98.00;;;;;;5031426;28;20459;-69
2021/05/04 00:51:25;;;;;;;1.30;1.00;;;4.90;98.00;;;;;;5034209;28;20466;-70
2021/05/04 00:53:52;;;;;;;1.20;1.10;;;5.00;98.00;;;;;;5030841;28;20493;-70
2021/05/04 00:56:19;;;;;;;1.20;1.10;;;5.00;98.00;;;;;;5034185;28;20461;-69
2021/05/04 00:58:49;;;;;;;1.50;1.30;;;5.00;98.00;;;;;;5031312;28;20516;-69
2021/05/04 01:01:16;;;;;;;1.20;1.00;;;5.20;98.00;;;;;;5034063;28;20461;-69
2021/05/04 01:03:44;;;;;;;1.60;1.20;;;5.20;98.00;;;;;;5029842;28;20472;-70
2021/05/04 01:06:11;;;;;;;1.63;1.20;;;5.20;98.00;;;;;;5033919;28;20491;-69
2021/05/04 01:08:37;;;;;;;1.83;1.20;;;5.20;98.00;;;;;;5031043;28;20453;-70
2021/05/04 01:11:04;;;;;;;2.70;1.83;;;5.30;98.00;;;;;;5033817;28;20815;-69
2021/05/04 01:13:33;;;;;;;1.20;1.00;;;5.30;98.00;;;;;;5029476;28;20559;-70
2021/05/04 01:16:00;;;;;;;1.80;1.37;;;5.50;98.00;;;;;;5033841;28;20467;-69
2021/05/04 01:18:29;;;;;;;1.40;1.20;;;5.50;98.00;;;;;;5032578;28;20511;-70
2021/05/04 01:20:56;;;;;;;1.20;1.10;;;5.40;98.00;;;;;;5033519;28;20486;-69
2021/05/04 01:23:23;;;;;;;1.20;1.00;;;5.30;98.00;;;;;;5032514;28;20457;-69
2021/05/04 01:25:49;;;;;;;4.03;1.97;;;5.10;98.00;;;;;;5030453;28;20453;-69
2021/05/04 01:28:16;;;;;;;1.20;0.90;;;5.00;98.00;;;;;;5033171;28;20959;-70
2021/05/04 01:30:43;;;;;;;2.07;1.57;;;5.00;98.00;;;;;;5030906;28;21097;-69
2021/05/04 01:33:09;;;;;;;1.30;1.03;;;4.90;98.00;;;;;;5033084;28;20489;-70
2021/05/04 01:35:36;;;;;;;2.73;2.40;;;4.80;98.00;;;;;;5030471;28;20490;-69
2021/05/04 01:38:04;;;;;;;1.30;1.20;;;4.90;98.00;;;;;;5033412;28;20459;-70
2021/05/04 01:40:31;;;;;;;1.20;1.00;;;5.00;98.00;;;;;;5030680;28;20487;-69
2021/05/04 01:42:58;;;;;;;1.20;1.00;;;5.00;98.00;;;;;;5033343;28;20464;-69
2021/05/04 01:45:24;;;;;;;1.60;1.20;;;5.20;98.00;;;;;;5029257;28;20468;-69
2021/05/04 01:47:51;;;;;;;1.37;1.30;;;5.10;98.00;;;;;;5033259;28;20960;-69
2021/05/04 01:50:18;;;;;;;2.20;1.20;;;5.20;98.00;;;;;;5030066;28;20473;-70
2021/05/04 01:52:45;;;;;;;1.30;1.20;;;5.20;98.00;;;;;;5031895;28;20486;-69
2021/05/04 01:55:13;;;;;;;1.20;1.20;;;4.90;98.00;;;;;;5030022;28;20485;-69
2021/05/04 01:57:39;;;;;;;1.30;1.23;;;4.70;98.00;;;;;;5033029;28;20959;-70
2021/05/04 02:00:08;;;;;;;2.70;1.20;;;4.60;98.00;;;;;;5029752;28;20462;-70
2021/05/04 02:02:35;;;;;;;1.20;1.00;;;4.60;98.00;;;;;;5032795;28;20462;-69
2021/05/04 02:05:01;;;;;;;1.93;1.30;;;4.60;98.00;;;;;;5029942;28;20451;-70
2021/05/04 02:07:28;;;;;;;2.50;1.60;;;4.90;98.00;;;;;;5032759;28;20463;-70
2021/05/04 02:09:54;;;;;;;1.20;0.90;;;4.70;98.00;;;;;;5029663;28;20463;-69
2021/05/04 02:12:22;;;;;;;1.30;1.10;;;4.70;98.00;;;;;;5032713;28;20805;-69
2021/05/04 02:14:49;;;;;;;1.20;1.00;;;4.70;98.00;;;;;;5029692;28;20483;-69
2021/05/04 02:17:15;;;;;;;1.33;1.20;;;4.70;98.00;;;;;;5032640;28;20472;-68
2021/05/04 02:19:42;;;;;;;1.20;1.00;;;4.70;98.00;;;;;;5029690;28;20475;-69
2021/05/04 02:22:08;;;;;;;1.20;1.07;;;4.70;98.00;;;;;;5032473;28;20471;-69
2021/05/04 02:24:35;;;;;;;1.60;1.20;;;4.80;98.00;;;;;;5029783;28;20489;-69
2021/05/04 02:27:01;;;;;;;1.20;1.00;;;4.80;98.00;;;;;;5032427;28;20518;-69
2021/05/04 02:29:28;;;;;;;1.20;1.00;;;4.90;98.00;;;;;;5029349;28;20557;-68
2021/05/04 02:31:55;;;;;;;1.20;1.00;;;5.00;98.00;;;;;;5032177;28;20514;-69
2021/05/04 02:34:21;;;;;;;1.20;0.97;;;4.80;98.00;;;;;;5029222;28;20480;-69
2021/05/04 02:36:48;;;;;;;1.83;1.40;;;4.80;98.00;;;;;;5032014;28;20456;-69
2021/05/04 02:39:14;;;;;;;1.30;1.10;;;4.90;98.00;;;;;;5029038;28;20516;-69
2021/05/04 02:41:41;;;;;;;1.20;1.03;;;4.90;98.00;;;;;;5031858;28;20464;-69
2021/05/04 02:44:07;;;;;;;1.33;1.20;;;4.90;98.00;;;;;;5029382;28;20461;-69
2021/05/04 02:46:35;;;;;;;1.20;0.97;;;4.90;98.00;;;;;;5032014;28;20468;-69
2021/05/04 02:49:05;;;;;;;1.30;1.20;;;4.80;98.00;;;;;;5028915;28;20456;-69
2021/05/04 02:51:32;;;;;;;1.20;1.00;;;4.90;98.00;;;;;;5031688;28;20457;-70
2021/05/04 02:53:58;;;;;;;1.20;0.90;;;4.80;98.00;;;;;;5028807;28;20856;-69
2021/05/04 02:56:25;;;;;;;1.30;1.17;;;4.90;98.00;;;;;;5032019;28;20963;-69
2021/05/04 02:58:52;;;;;;;1.20;1.00;;;5.10;98.00;;;;;;5029474;28;20510;-69
2021/05/04 03:01:24;;;;;;;1.67;1.30;;;5.20;98.00;;;;;;5031912;28;20465;-69
2021/05/04 03:03:51;;;;;;;1.30;1.10;;;5.20;98.00;;;;;;5027641;28;20492;-69
2021/05/04 03:06:18;;;;;;;1.70;1.33;;;5.20;98.00;;;;;;5031846;28;20457;-69
2021/05/04 03:08:44;;;;;;;1.20;1.00;;;5.10;98.00;;;;;;5029195;28;20453;-69
2021/05/04 03:11:11;;;;;;;2.13;1.20;;;5.10;98.00;;;;;;5031678;28;20488;-69
2021/05/04 03:13:37;;;;;;;1.87;1.00;;;4.90;98.00;;;;;;5030898;28;20489;-70
2021/05/04 03:16:04;;;;;;;2.33;1.77;;;4.70;98.00;;;;;;5030138;28;20496;-70
2021/05/04 03:18:31;;;;;;;1.70;1.40;;;4.60;98.00;;;;;;5031707;28;20458;-69
2021/05/04 03:20:59;;;;;;;1.20;1.00;;;4.60;98.00;;;;;;5028839;28;20514;-69
2021/05/04 03:23:25;;;;;;;1.27;1.17;;;4.50;98.00;;;;;;5031163;28;21008;-68
2021/05/04 03:25:52;;;;;;;1.20;1.10;;;4.60;98.00;;;;;;5026643;28;20500;-69
2021/05/04 03:28:19;;;;;;;1.50;1.30;;;4.70;98.00;;;;;;5030726;28;20488;-69
2021/05/04 03:30:47;;;;;;;1.20;1.10;;;4.90;98.00;;;;;;5028321;28;20520;-69
2021/05/04 03:33:14;;;;;;;1.20;1.00;;;4.90;98.00;;;;;;5031409;28;20454;-69
2021/05/04 03:35:41;;;;;;;1.20;1.00;;;4.90;98.00;;;;;;5028476;28;20931;-69
2021/05/04 03:38:09;;;;;;;2.23;1.30;;;5.00;98.00;;;;;;5031657;28;20466;-69
2021/05/04 03:40:35;;;;;;;1.20;1.00;;;5.10;98.00;;;;;;5028202;28;20460;-69
2021/05/04 03:43:02;;;;;;;1.40;1.13;;;5.20;98.00;;;;;;5031542;28;20451;-69
2021/05/04 03:45:29;;;;;;;1.20;1.10;;;5.20;98.00;;;;;;5028911;28;21133;-69
2021/05/04 03:47:56;;;;;;;1.20;1.10;;;5.20;98.00;;;;;;5035484;28;20457;-68
2021/05/04 03:50:25;;;;;;;1.20;1.00;;;5.20;98.00;;;;;;5031928;28;20526;-69
2021/05/04 03:52:52;;;;;;;1.50;1.47;;;5.20;98.00;;;;;;5035213;28;20497;-69
2021/05/04 03:55:20;;;;;;;1.20;1.10;;;5.30;98.00;;;;;;5032220;28;20486;-70
2021/05/04 03:57:48;;;;;;;1.70;1.40;;;5.30;98.00;;;;;;5035075;28;20456;-69
2021/05/04 04:00:16;;;;;;;1.30;1.20;;;5.20;98.00;;;;;;5030605;28;20451;-69
2021/05/04 04:02:43;;;;;;;1.20;0.90;;;5.00;98.00;;;;;;5034906;28;20470;-69
2021/05/04 04:05:11;;;;;;;1.30;1.00;;;5.10;98.00;;;;;;5031751;28;20489;-69
2021/05/04 04:07:39;;;;;;;1.30;1.17;;;5.20;98.00;;;;;;5035045;28;20874;-69
2021/05/04 04:10:06;;;;;;;3.67;1.47;;;5.10;98.00;;;;;;5032163;28;20479;-69
2021/05/04 04:12:33;;;;;;;1.93;1.50;;;5.00;98.00;;;;;;5034826;28;20941;-69
2021/05/04 04:15:00;;;;;;;1.20;1.07;;;4.90;98.00;;;;;;5032030;28;20981;-69
2021/05/04 04:17:27;;;;;;;1.50;1.47;;;5.00;98.00;;;;;;5035060;28;20458;-69
2021/05/04 04:19:53;;;;;;;1.50;1.50;;;4.90;98.00;;;;;;5031551;28;20486;-69
2021/05/04 04:22:20;;;;;;;2.40;1.40;;;4.90;98.00;;;;;;5034815;28;20486;-69
2021/05/04 04:24:46;;;;;;;1.20;0.97;;;4.80;98.00;;;;;;5032125;28;20462;-70
2021/05/04 04:27:13;;;;;;;1.20;0.90;;;5.00;98.00;;;;;;5033543;28;20959;-69
2021/05/04 04:29:40;;;;;;;1.20;1.00;;;5.10;98.00;;;;;;5030796;28;20615;-69
2021/05/04 04:32:07;;;;;;;1.60;1.53;;;5.30;98.00;;;;;;5034450;28;20950;-69
2021/05/04 04:34:33;;;;;;;1.40;1.23;;;5.40;98.00;;;;;;5031437;28;20488;-70
2021/05/04 04:37:00;;;;;;;1.43;1.10;;;5.40;98.00;;;;;;5034367;28;20463;-69
2021/05/04 04:39:27;;;;;;;1.20;1.00;;;5.30;98.00;;;;;;5027720;28;20457;-69
2021/05/04 04:41:54;;;;;;;1.30;1.17;;;5.40;98.00;;;;;;5034358;28;20492;-69
2021/05/04 04:44:21;;;;;;;1.30;1.10;;;5.30;98.00;;;;;;5031196;28;20456;-69
2021/05/04 04:46:48;;;;;;;1.83;1.50;;;5.30;98.00;;;;;;5034270;28;20483;-69
2021/05/04 04:49:16;;;;;;;1.37;1.20;;;5.40;98.00;;;;;;5031586;28;20456;-69
2021/05/04 04:51:43;;;;;;;1.77;1.60;;;5.50;98.00;;;;;;5034125;28;21187;-69
2021/05/04 04:54:10;;;;;;;1.30;1.10;;;5.60;98.00;;;;;;5030955;28;21045;-69
2021/05/04 04:56:37;;;;;;;1.20;1.00;;;5.60;98.00;;;;;;5033663;28;20980;-69
2021/05/04 04:59:04;;;;;;;2.40;1.57;;;5.50;98.00;;;;;;5030423;28;20460;-69
2021/05/04 05:01:32;;;;;;;1.20;1.00;;;5.60;98.00;;;;;;5034119;28;20465;-69
2021/05/04 05:04:00;;;;;;;1.77;1.70;;;5.70;98.00;;;;;;5031033;28;20844;-69
2021/05/04 05:06:27;;;;;;;1.40;1.20;;;5.60;98.00;;;;;;5033978;28;20903;-69
2021/05/04 05:08:53;;;;;;;1.30;1.10;;;5.50;98.00;;;;;;5031585;28;20462;-68
2021/05/04 05:11:20;;;;;;;1.20;1.00;;;5.60;98.00;;;;;;5033953;28;20518;-69
2021/05/04 05:13:47;;;;;;;1.20;1.00;;;5.70;98.00;;;;;;5033765;28;20496;-69
2021/05/04 05:16:15;;;;;;;1.20;1.00;;;5.80;98.00;;;;;;5030567;28;20934;-69
2021/05/04 05:18:42;;;;;;;1.73;1.67;;;5.90;98.00;;;;;;5033840;28;20504;-69
2021/05/04 05:21:11;;;;;;;1.20;1.00;;;5.90;98.00;;;;;;5030552;28;20466;-69
2021/05/04 05:23:38;;;;;;;2.43;1.70;;;5.90;98.00;;;;;;5033632;28;20456;-69
2021/05/04 05:26:05;;;;;;;1.20;1.00;;;5.90;98.00;;;;;;5030633;28;20456;-69
2021/05/04 05:28:32;;;;;;;1.20;1.00;;;5.70;98.00;;;;;;5033431;28;20525;-69
2021/05/04 05:30:59;;;;;;;1.70;1.30;;;5.70;98.00;;;;;;5030501;28;20469;-69
2021/05/04 05:33:26;;;;;;;1.20;1.00;;;5.50;98.00;;;;;;5033183;28;20452;-69
2021/05/04 05:35:52;;;;;;;1.40;1.10;;;5.50;98.00;;;;;;5030341;28;20449;-69
2021/05/04 05:38:21;;;;;;;1.20;0.90;;;5.60;98.00;;;;;;5033170;28;20995;-69
2021/05/04 05:40:48;;;;;;;1.20;1.10;;;5.60;98.00;;;;;;5030349;28;20457;-69
2021/05/04 05:43:14;;;;;;;1.20;1.00;;;5.70;98.00;;;;;;5033171;28;20461;-69
2021/05/04 05:45:41;;;;;;;1.40;1.10;;;5.90;98.00;;;;;;5030402;28;20455;-69
2021/05/04 05:48:08;;;;;;;1.20;1.00;;;6.20;98.00;;;;;;5033329;28;20478;-69
2021/05/04 05:50:34;;;;;;;1.20;1.00;;;6.50;98.00;;;;;;5030059;28;20459;-69
2021/05/04 05:53:01;;;;;;;1.20;1.10;;;6.70;98.00;;;;;;5032761;28;20463;-69
2021/05/04 05:55:31;;;;;;;1.30;1.10;;;6.90;98.00;;;;;;5030502;28;20485;-70
2021/05/04 05:57:57;;;;;;;1.20;1.07;;;7.00;98.00;;;;;;5033012;28;20470;-70
2021/05/04 06:00:25;;;;;;;1.77;1.50;;;7.10;98.00;;;;;;5029907;28;20491;-69
2021/05/04 06:02:51;;;;;;;1.57;1.20;;;7.10;98.00;;;;;;5032845;28;20544;-68
2021/05/04 06:05:18;;;;;;;2.23;1.40;;;7.40;98.00;;;;;;5030201;28;20534;-68
2021/05/04 06:07:44;;;;;;;1.30;1.00;;;7.60;98.00;;;;;;5032677;28;20536;-70
2021/05/04 06:10:12;;;;;;;1.20;0.97;;;7.80;98.00;;;;;;5029423;28;20470;-69
2021/05/04 06:12:40;;;;;;;1.20;0.90;;;8.10;98.00;;;;;;5032637;28;20464;-69
2021/05/04 06:15:08;;;;;;;1.30;1.17;;;8.60;97.40;;;;;;5029679;28;21029;-69
2021/05/04 06:17:35;;;;;;;1.40;1.10;;;8.80;97.90;;;;;;5032538;28;20461;-69
2021/05/04 06:20:02;;;;;;;1.30;1.20;;;9.20;96.50;;;;;;5029504;28;20877;-68
2021/05/04 06:22:29;;;;;;;1.20;1.00;;;9.50;94.40;;;;;;5032410;28;20588;-68
2021/05/04 06:24:56;;;;;;;1.90;1.27;;;9.90;92.00;;;;;;5029875;28;20455;-69
2021/05/04 06:27:22;;;;;;;2.10;1.57;;;10.20;90.40;;;;;;5032684;28;20465;-69
2021/05/04 06:29:50;;;;;;;1.87;1.20;;;10.30;90.90;;;;;;5029772;28;20835;-69
2021/05/04 06:32:16;;;;;;;1.20;1.00;;;10.60;89.80;;;;;;5031161;28;20466;-70
2021/05/04 06:34:43;;;;;;;1.20;1.10;;;10.70;90.80;;;;;;5029178;28;20825;-70
2021/05/04 06:37:09;;;;;;;1.30;1.10;;;10.90;88.60;;;;;;5032286;28;20464;-70
2021/05/04 06:39:36;;;;;;;1.40;1.10;;;11.00;88.50;;;;;;5029719;28;20459;-70
2021/05/04 06:42:03;;;;;;;1.40;1.37;;;11.10;88.50;;;;;;5032144;28;21026;-70
2021/05/04 06:44:29;;;;;;;1.40;1.10;;;11.30;89.10;;;;;;5029335;28;20483;-71
2021/05/04 06:46:57;;;;;;;1.70;1.30;;;11.30;88.90;;;;;;5031896;28;20460;-69
2021/05/04 06:49:24;;;;;;;1.60;1.23;;;11.40;87.90;;;;;;5029251;28;20880;-70
2021/05/04 06:51:51;;;;;;;1.80;1.33;;;11.50;87.10;;;;;;5031910;28;20870;-71
2021/05/04 06:54:17;;;;;;;1.20;1.10;;;11.60;86.60;;;;;;5028076;28;20556;-70
2021/05/04 06:56:44;;;;;;;1.40;1.00;;;11.70;85.90;;;;;;5031773;28;20945;-71
2021/05/04 06:59:10;;;;;;;1.30;1.20;;;11.80;86.10;;;;;;5029014;28;20986;-71
2021/05/04 07:01:37;;;;;;;1.93;1.37;;;11.90;85.80;;;;;;5030399;28;20455;-72
2021/05/04 07:04:04;;;;;;;2.13;1.10;;;12.00;87.50;;;;;;5029608;28;20457;-73
2021/05/04 07:06:31;;;;;;;1.20;1.00;;;12.10;85.80;;;;;;5031555;28;20496;-71
2021/05/04 07:08:57;;;;;;;1.30;1.00;;;12.20;84.40;;;;;;5031984;28;20509;-71
2021/05/04 07:11:24;;;;;;;1.20;1.00;;;12.20;84.70;;;;;;5029098;28;20560;-71
2021/05/04 07:13:50;;;;;;;1.53;1.17;;;12.30;84.00;;;;;;5031852;28;21018;-70
2021/05/04 07:16:17;;;;;;;1.50;1.40;;;12.40;82.90;;;;;;5028819;28;20483;-70
2021/05/04 07:18:43;;;;;;;1.20;1.10;;;12.50;83.20;;;;;;5031747;28;20460;-70
2021/05/04 07:21:11;;;;;;;1.30;1.00;;;12.60;83.30;;;;;;5028001;28;20451;-71
2021/05/04 07:23:39;;;;;;;1.40;1.20;;;12.60;82.60;;;;;;5030295;28;20527;-70
2021/05/04 07:26:06;;;;;;;1.60;1.27;;;12.70;82.10;;;;;;5028564;28;20496;-70
2021/05/04 07:28:33;;;;;;;1.20;1.10;;;12.80;82.40;;;;;;5031388;28;20469;-71
2021/05/04 07:31:00;;;;;;;1.20;1.00;;;12.90;83.50;;;;;;5028195;28;20497;-71
2021/05/04 07:33:27;;;;;;;1.60;1.40;;;13.00;82.50;;;;;;5031376;28;20467;-70
2021/05/04 07:35:58;;;;;;;1.70;1.30;;;13.10;82.20;;;;;;5026793;28;20482;-69
2021/05/04 07:38:26;;;;;;;1.67;1.40;;;13.20;80.90;;;;;;5030900;28;20454;-69
2021/05/04 07:40:54;;;;;;;1.40;1.23;;;13.20;82.40;;;;;;5029156;28;20453;-70
2021/05/04 07:43:22;;;;;;;1.20;1.07;;;13.40;82.80;;;;;;5050704;28;20538;-69
2021/05/04 07:45:48;;;;;;;1.20;1.03;;;13.40;81.10;;;;;;5043154;28;20466;-70
2021/05/04 07:48:17;;;;;;;1.30;1.20;;;13.50;79.90;;;;;;5030869;28;20457;-69
2021/05/04 07:50:46;;;;;;;1.20;1.00;;;13.60;80.50;;;;;;5028153;28;20460;-69
2021/05/04 07:53:14;;;;;;;1.30;1.07;;;13.70;79.60;;;;;;5030874;28;20468;-70
2021/05/04 07:55:43;;;;;;;1.60;1.37;;;13.80;80.50;;;;;;5028308;28;20985;-71
2021/05/04 07:58:10;;;;;;;1.20;0.90;;;13.90;80.00;;;;;;5030555;28;20777;-69
2021/05/04 08:00:38;;;;;;;2.03;1.73;;;14.00;78.60;;;;;;5027797;28;20467;-70
2021/05/04 08:03:05;;;;;;;2.30;1.40;;;14.10;78.70;;;;;;5030731;28;20553;-69
2021/05/04 08:05:32;;;;;;;1.20;1.10;;;14.20;78.20;;;;;;5028047;28;20493;-69
2021/05/04 08:07:58;;;;;;;1.30;1.10;;;14.40;76.40;;;;;;5029117;28;20462;-70
2021/05/04 08:10:25;;;;;;;1.50;1.37;;;14.60;77.00;;;;;;5027863;28;20931;-68
2021/05/04 08:12:52;;;;;;;1.20;1.10;;;14.70;75.70;;;;;;5030397;28;20476;-69
2021/05/04 08:15:22;;;;;;;1.20;1.00;;;14.80;77.10;;;;;;5028026;28;20980;-70
2021/05/04 08:17:55;;;;;;;1.20;1.10;;;14.90;74.50;;;;;;5030427;28;20493;-69
2021/05/04 08:20:22;;;;;;;1.43;1.20;;;15.00;75.50;;;;;;5027574;28;20547;-67
2021/05/04 08:22:49;;;;;;;1.50;1.30;;;15.10;75.80;;;;;;5030132;28;20461;-67
2021/05/04 08:25:15;;;;;;;1.20;1.00;;;15.20;75.40;;;;;;5027827;28;20464;-68
2021/05/04 08:27:42;;;;;;;1.30;1.20;;;15.30;75.40;;;;;;5030227;28;20493;-68
2021/05/04 08:30:10;;;;;;;1.90;1.10;;;15.40;76.10;;;;;;5027419;28;20468;-67
2021/05/04 08:32:37;;;;;;;1.30;1.20;;;15.60;75.70;;;;;;5032462;28;20553;-67
2021/05/04 08:35:04;;;;;;;1.30;1.00;;;15.70;74.80;;;;;;5031143;28;20485;-68
2021/05/04 08:37:30;;;;;;;1.30;1.20;;;15.80;73.50;;;;;;5034158;28;20458;-70
2021/05/04 08:39:57;;;;;;;1.20;1.20;;;15.80;73.80;;;;;;5031237;28;20462;-70
2021/05/04 08:42:23;;;;;;;1.27;1.23;;;16.00;73.80;;;;;;5033477;28;20601;-70
2021/05/04 08:44:52;;;;;;;1.20;1.10;;;16.00;75.80;;;;;;5031030;28;20520;-70
2021/05/04 08:47:20;;;;;;;1.67;1.30;;;16.10;74.10;;;;;;5033864;28;20466;-68
2021/05/04 08:49:48;;;;;;;1.63;1.10;;;16.20;73.20;;;;;;5031197;28;20655;-73
2021/05/04 08:52:15;;;;;;;1.60;1.20;;;16.20;73.40;;;;;;5033059;28;20852;-71
2021/05/04 08:54:41;;;;;;;1.30;1.20;;;16.30;72.30;;;;;;5029661;28;21050;-72
2021/05/04 08:57:08;;;;;;;1.87;1.33;;;16.20;71.50;;;;;;5033717;28;20512;-71
2021/05/04 08:59:35;;;;;;;1.50;1.10;;;16.20;71.40;;;;;;5030368;28;20911;-71
2021/05/04 09:02:03;;;;;;;1.20;1.07;;;16.20;71.60;;;;;;5033039;28;20466;-72
2021/05/04 09:04:35;;;;;;;1.53;1.17;;;16.20;73.30;;;;;;5030810;28;20791;-72
2021/05/04 09:07:21;;;;;;;1.40;1.23;;;16.30;74.20;;;;;;5033560;28;20885;-71
2021/05/04 09:10:06;;;;;;;1.40;1.30;;;16.40;71.40;;;;;;5030707;28;20968;-70
2021/05/04 09:12:36;;;;;;;1.20;1.00;;;16.40;70.70;;;;;;5033021;28;20462;-70
2021/05/04 09:15:49;;;;;;;1.20;1.00;;;16.50;71.40;;;;;;5030394;28;20799;-71
2021/05/04 09:21:32;;;;;;;1.30;1.10;;;17.00;69.80;;;;;;5030803;28;20538;-71
2021/05/04 09:23:59;;;;;;;1.27;1.07;;;17.10;70.90;;;;;;5033116;28;20459;-70
2021/05/04 09:26:32;;;;;;;1.20;1.10;;;17.30;72.50;;;;;;5029618;28;20462;-70
2021/05/04 09:28:59;;;;;;;1.20;1.00;;;17.60;72.50;;;;;;5030911;28;20466;-71
2021/05/04 09:31:27;;;;;;;2.23;1.40;;;17.70;69.00;;;;;;5029523;28;20941;-70
2021/05/04 09:33:56;;;;;;;1.30;1.10;;;17.70;68.50;;;;;;5032524;28;20496;-70
2021/05/04 09:36:44;;;;;;;1.30;1.23;;;17.60;68.60;;;;;;5030189;28;20957;-70
2021/05/04 09:39:12;;;;;;;1.20;1.10;;;17.50;71.40;;;;;;5032794;28;20820;-69
2021/05/04 09:41:39;;;;;;;1.93;1.50;;;17.60;70.60;;;;;;5030023;28;20454;-70
2021/05/04 09:44:06;;;;;;;1.80;1.30;;;17.60;69.20;;;;;;5031727;28;20455;-70
2021/05/04 09:46:49;;;;;;;1.60;1.43;;;17.50;68.10;;;;;;5029645;28;20458;-71
2021/05/04 09:49:30;;;;;;;1.30;1.20;;;17.60;71.50;;;;;;5030828;28;20450;-71
2021/05/04 09:52:39;;;;;;;1.20;1.13;;;17.60;69.20;;;;;;5032087;28;20490;-70
2021/05/04 09:55:08;;;;;;;1.20;1.00;;;17.60;68.80;;;;;;5029307;28;20488;-69
2021/05/04 09:57:40;;;;;;;1.50;1.40;;;17.60;69.20;;;;;;5032162;28;20470;-70
2021/05/04 10:00:10;;;;;;;2.20;1.40;;;17.70;69.10;;;;;;5029015;28;20509;-71
2021/05/04 10:02:39;;;;;;;1.30;1.10;;;17.90;70.80;;;;;;5033222;28;20929;-69
2021/05/04 10:05:09;;;;;;;1.63;1.50;;;17.90;68.30;;;;;;5048075;28;20563;-68
2021/05/04 10:07:37;;;;;;;1.20;1.00;;;17.80;67.10;;;;;;5052211;28;20560;-71
2021/05/04 10:10:06;;;;;;;1.30;1.03;;;17.80;68.70;;;;;;5049275;28;21010;-70
2021/05/04 10:12:37;;;;;;;1.30;1.13;;;17.70;68.80;;;;;;5051761;28;20461;-70
2021/05/04 10:15:06;;;;;;;1.30;1.23;;;17.80;69.80;;;;;;5049447;28;20486;-70
2021/05/04 10:17:33;;;;;;;1.20;1.10;;;17.60;66.90;;;;;;5051840;28;20465;-71
2021/05/04 10:20:03;;;;;;;1.60;1.40;;;17.40;68.40;;;;;;5048936;28;20457;-71
2021/05/04 10:22:30;;;;;;;1.30;1.13;;;17.20;69.30;;;;;;5051606;28;20453;-70
2021/05/04 10:24:57;;;;;;;1.90;1.63;;;17.10;70.40;;;;;;5048895;28;20457;-70
2021/05/04 10:27:24;;;;;;;1.40;1.13;;;17.20;69.80;;;;;;5051608;28;20442;-70
2021/05/04 10:29:52;;;;;;;1.20;1.00;;;17.40;71.70;;;;;;5048618;28;20470;-70
2021/05/04 10:32:48;;;;;;;1.30;1.20;;;17.50;68.70;;;;;;5051379;28;20504;-70
2021/05/04 10:35:46;;;;;;;1.40;1.10;;;17.70;69.10;;;;;;5049008;28;20481;-70
2021/05/04 10:38:14;;;;;;;1.20;1.20;;;17.60;67.30;;;;;;5051672;28;20449;-70
2021/05/04 10:40:42;;;;;;;1.30;1.20;;;17.60;67.20;;;;;;5048722;28;20460;-71
2021/05/04 10:43:37;;;;;;;1.57;1.33;;;17.70;68.00;;;;;;5051823;28;20453;-70
2021/05/04 10:46:09;;;;;;;1.37;1.30;;;17.90;69.20;;;;;;5048961;28;20807;-71
2021/05/04 10:48:45;;;;;;;1.20;1.00;;;18.10;67.40;;;;;;5050169;28;20947;-70
2021/05/04 10:51:14;;;;;;;1.93;1.50;;;18.30;67.50;;;;;;5048448;28;21216;-70
2021/05/04 10:54:04;;;;;;;1.20;1.00;;;18.40;66.40;;;;;;5051303;28;20473;-70
2021/05/04 10:56:36;;;;;;;1.57;1.10;;;18.30;67.20;;;;;;5048772;28;20479;-70
2021/05/04 10:59:13;;;;;;;1.30;1.20;;;18.30;69.00;;;;;;5051314;28;20449;-70
2021/05/04 11:02:23;;;;;;;2.20;1.37;;;18.40;67.60;;;;;;5047072;28;20484;-70
2021/05/04 11:04:51;;;;;;;2.03;1.50;;;18.40;67.90;;;;;;5048789;28;20453;-71
2021/05/04 11:07:56;;;;;;;3.00;1.60;;;18.30;65.00;;;;;;5051214;28;20454;-71
2021/05/04 11:10:25;;;;;;;2.20;1.30;;;17.90;66.20;;;;;;5048198;28;20935;-71
2021/05/04 11:12:51;;;;;;;1.30;1.10;;;17.70;67.10;;;;;;5051008;28;20905;-71
2021/05/04 11:15:25;;;;;;;1.97;1.30;;;17.50;68.10;;;;;;5047888;28;20543;-71
2021/05/04 11:17:53;;;;;;;1.40;1.20;;;17.40;70.30;;;;;;5051250;28;20457;-70
2021/05/04 11:20:31;;;;;;;1.40;1.20;;;17.50;69.30;;;;;;5048445;28;20458;-71
2021/05/04 11:22:58;;;;;;;1.43;1.27;;;17.50;66.50;;;;;;5051005;28;20465;-71
2021/05/04 11:25:32;;;;;;;1.40;1.10;;;17.50;67.90;;;;;;5046911;28;20952;-70
2021/05/04 11:28:01;;;;;;;1.33;1.13;;;17.90;67.40;;;;;;5051097;28;20462;-71
2021/05/04 11:30:32;;;;;;;1.30;1.10;;;18.00;68.20;;;;;;5048146;28;20473;-70
2021/05/04 11:33:17;;;;;;;1.20;1.10;;;17.90;68.30;;;;;;5050842;28;20454;-70
2021/05/04 11:35:44;;;;;;;1.20;1.10;;;17.80;69.00;;;;;;5048098;28;20489;-71
2021/05/04 11:38:19;;;;;;;1.50;1.13;;;17.50;69.30;;;;;;5051044;28;20469;-71
2021/05/04 11:40:46;;;;;;;1.20;1.00;;;17.60;69.80;;;;;;5048300;28;20453;-71
2021/05/04 11:43:16;;;;;;;3.73;1.40;;;17.70;69.10;;;;;;5050586;28;20628;-69
2021/05/04 11:45:43;;;;;;;1.60;1.30;;;17.90;68.90;;;;;;5046498;28;20461;-70
2021/05/04 11:48:11;;;;;;;1.30;1.10;;;18.00;69.80;;;;;;5050033;28;20757;-70
2021/05/04 11:50:38;;;;;;;1.20;1.10;;;18.20;68.20;;;;;;5047253;28;20481;-69
2021/05/04 11:53:06;;;;;;;1.67;1.23;;;17.90;67.20;;;;;;5049859;28;20453;-68
2021/05/04 11:55:34;;;;;;;1.27;1.13;;;17.70;67.40;;;;;;5047472;28;20539;-68
2021/05/04 11:58:02;;;;;;;1.20;1.10;;;17.60;68.30;;;;;;5050082;28;20797;-70
2021/05/04 12:00:31;;;;;;;1.20;1.00;;;17.50;69.60;;;;;;5047344;28;20457;-70
2021/05/04 12:03:05;;;;;;;1.40;1.30;;;17.50;69.30;;;;;;5048790;28;20457;-70
2021/05/04 12:05:33;;;;;;;1.40;1.30;;;17.50;70.50;;;;;;5047779;28;20969;-69
2021/05/04 12:08:01;;;;;;;1.20;1.00;;;17.40;71.30;;;;;;5052940;28;20454;-70
2021/05/04 12:10:36;;;;;;;1.20;1.00;;;17.30;69.60;;;;;;5051015;28;20465;-69
2021/05/04 12:13:04;;;;;;;1.20;1.00;;;17.20;69.70;;;;;;5053683;28;20591;-70
2021/05/04 12:15:32;;;;;;;2.27;1.60;;;17.20;69.60;;;;;;5050988;28;20539;-69
2021/05/04 12:18:02;;;;;;;1.20;1.00;;;17.10;70.10;;;;;;5053635;28;20458;-71
2021/05/04 12:20:30;;;;;;;2.23;1.60;;;17.10;69.10;;;;;;5050822;28;20973;-70
2021/05/04 12:23:00;;;;;;;1.30;1.23;;;17.00;71.80;;;;;;5051954;28;20465;-70
2021/05/04 12:25:58;;;;;;;1.20;1.00;;;17.00;70.80;;;;;;5036228;28;20473;-69
2021/05/04 12:28:27;;;;;;;1.30;1.23;;;17.00;71.30;;;;;;5033310;28;20965;-67
2021/05/04 12:31:02;;;;;;;1.43;1.20;;;16.90;72.50;;;;;;5030657;28;20466;-68
2021/05/04 12:33:29;;;;;;;1.30;1.20;;;16.80;72.50;;;;;;5033752;28;20465;-67
2021/05/04 12:36:02;;;;;;;1.57;1.23;;;16.70;72.90;;;;;;5030778;28;20536;-68
2021/05/04 12:38:42;;;;;;;1.30;1.17;;;16.60;71.50;;;;;;5033416;28;20465;-69
2021/05/04 12:41:12;;;;;;;1.20;1.00;;;16.60;71.60;;;;;;5027334;28;20454;-69
2021/05/04 12:43:41;;;;;;;1.27;1.13;;;16.70;71.00;;;;;;5047161;28;20527;-69
2021/05/04 12:46:24;;;;;;;1.20;1.20;;;16.60;72.20;;;;;;5050709;28;20544;-70
2021/05/04 12:48:53;;;;;;;4.03;1.30;;;16.60;70.90;;;;;;5053261;28;20465;-69
2021/05/04 12:51:25;;;;;;;1.20;0.90;;;16.60;72.00;;;;;;5050894;28;20468;-70
2021/05/04 12:54:04;;;;;;;1.20;1.20;;;16.50;71.80;;;;;;5053102;28;20893;-69
2021/05/04 12:56:32;;;;;;;1.20;1.10;;;16.50;72.10;;;;;;5050682;28;20485;-69
2021/05/04 12:59:01;;;;;;;2.93;1.47;;;16.50;73.70;;;;;;5052112;28;20457;-70
2021/05/04 13:01:45;;;;;;;1.27;1.20;;;16.50;74.30;;;;;;5050820;28;20453;-70
2021/05/04 13:04:22;;;;;;;3.10;2.07;;;16.50;73.10;;;;;;5053139;28;20515;-70